Time;durP1;ratioP1;P1;durP2;ratioP2;P2;SDS_P1;SDS_P2;PMS_P1;PMS_P2;Temp;Humidity;BMP_temperature;BMP_pressure;BME280_temperature;BME280_humidity;BME280_pressure;Samples;Min_cycle;Max_cycle;Signal;HPM_P1;HPM_P2
2023/10/20 00:02:35;;;;;;;;;6.33;5.00;;;;;17.40;82.29;100836.63;146607;585;46016;-69
2023/10/20 00:05:32;;;;;;;;;6.00;5.00;;;;;17.41;81.79;100837.53;146608;577;47011;-68
2023/10/20 00:08:35;;;;;;;;;6.67;6.67;;;;;17.40;81.89;100831.41;146603;594;48012;-68
2023/10/20 00:11:33;;;;;;;;;9.00;8.00;;;;;17.44;82.04;100838.47;146604;578;46010;-68
2023/10/20 00:14:33;;;;;;;;;8.00;7.33;;;;;17.46;82.02;100839.41;146607;597;46012;-68
2023/10/20 00:17:25;;;;;;;;;7.67;7.67;;;;;17.50;81.81;100838.62;146606;580;47010;-68
2023/10/20 00:20:17;;;;;;;;;9.00;8.00;;;;;17.51;81.99;100836.91;146606;663;46034;-67
2023/10/20 00:23:15;;;;;;;;;9.67;5.67;;;;;16.94;81.40;100735.91;146606;586;46020;-68
2023/10/20 00:26:24;;;;;;;;;8.00;7.00;;;;;17.49;81.61;100836.00;146604;640;46036;-68
2023/10/20 00:29:21;;;;;;;;;7.00;7.00;;;;;17.46;80.83;100828.03;146606;571;46021;-69
2023/10/20 00:32:19;;;;;;;;;8.33;5.67;;;;;17.39;80.96;100829.63;146604;671;46016;-68
2023/10/20 00:35:22;;;;;;;;;7.33;6.00;;;;;17.31;81.30;100832.03;146608;589;47021;-68
2023/10/20 00:38:17;;;;;;;;;7.00;6.33;;;;;17.28;81.80;100828.47;146608;569;46012;-68
2023/10/20 00:41:16;;;;;;;;;9.00;6.33;;;;;17.27;81.49;100826.69;146607;595;46020;-70
2023/10/20 00:44:09;;;;;;;;;8.33;7.00;;;;;17.25;82.00;100817.91;146603;566;46017;-68
2023/10/20 00:47:19;;;;;;;;;8.00;7.33;;;;;15.94;80.52;100593.66;146607;578;47020;-69
2023/10/20 00:50:31;;;;;;;;;8.67;7.00;;;;;17.19;81.14;100815.12;146604;583;47012;-68
2023/10/20 00:53:23;;;;;;;;;6.33;6.00;;;;;17.16;81.84;100804.56;146608;583;46010;-68
2023/10/20 00:56:25;;;;;;;;;6.67;6.00;;;;;17.22;81.85;100812.59;146606;582;46913;-69
2023/10/20 00:59:33;;;;;;;;;6.33;6.00;;;;;17.19;80.98;100817.75;146610;611;46014;-68
2023/10/20 01:02:34;;;;;;;;;7.33;5.33;;;;;17.11;81.46;100819.28;146607;683;46016;-69
2023/10/20 01:05:35;;;;;;;;;6.00;6.00;;;;;17.03;81.78;100819.06;146608;612;46020;-69
2023/10/20 01:08:27;;;;;;;;;6.33;5.67;;;;;16.99;81.92;100825.09;146605;622;47014;-69
2023/10/20 01:11:37;;;;;;;;;5.67;5.67;;;;;16.93;81.32;100824.94;146607;636;46010;-71
2023/10/20 01:14:29;;;;;;;;;6.67;6.00;;;;;16.91;82.42;100839.69;146607;575;46913;-70
2023/10/20 01:17:32;;;;;;;;;4.33;4.33;;;;;16.88;82.81;100830.03;146612;597;46010;-70
2023/10/20 01:20:28;;;;;;;;;6.00;6.00;;;;;16.86;83.08;100821.25;146604;701;46914;-70
2023/10/20 01:23:25;;;;;;;;;8.33;6.33;;;;;16.87;82.79;100830.88;146607;638;46020;-69
2023/10/20 01:26:29;;;;;;;;;8.33;7.00;;;;;15.60;82.01;100602.22;146606;578;47013;-70
2023/10/20 01:29:40;;;;;;;;;8.33;8.00;;;;;16.79;82.28;100816.66;146608;690;46010;-69
2023/10/20 01:32:39;;;;;;;;;10.00;7.33;;;;;16.76;83.03;100813.97;146607;637;47012;-69
2023/10/20 01:35:30;;;;;;;;;8.67;8.67;;;;;16.71;82.85;100820.81;146608;604;46020;-69
2023/10/20 01:38:25;;;;;;;;;8.00;8.00;;;;;16.71;82.83;100812.94;146607;588;46016;-69
2023/10/20 01:41:22;;;;;;;;;8.00;8.00;;;;;16.69;83.71;100812.00;146607;622;46010;-70
2023/10/20 01:44:23;;;;;;;;;7.33;7.33;;;;;16.63;83.34;100811.00;146607;575;46016;-70
2023/10/20 01:47:21;;;;;;;;;8.33;8.00;;;;;16.55;84.76;100804.66;146607;582;46010;-69
2023/10/20 01:50:13;;;;;;;;;7.00;6.00;;;;;16.48;83.93;100810.56;146608;574;45017;-67
2023/10/20 01:53:25;;;;;;;;;7.00;5.67;;;;;16.47;84.73;100813.13;146607;632;46020;-67
2023/10/20 01:56:17;;;;;;;;;7.00;7.00;;;;;16.46;84.36;100807.00;146604;592;46038;-68
2023/10/20 01:59:16;;;;;;;;;9.00;7.67;;;;;16.46;84.76;100804.41;146611;642;46020;-68
2023/10/20 02:02:11;;;;;;;;;7.33;6.00;;;;;16.44;84.41;100799.97;146609;578;46016;-67
2023/10/20 02:05:03;;;;;;;;;4.00;4.00;;;;;16.42;84.92;100799.94;146610;616;46021;-67
2023/10/20 02:08:02;;;;;;;;;6.00;5.33;;;;;16.44;84.59;100799.97;146609;632;46014;-68
2023/10/20 02:10:59;;;;;;;;;5.67;5.67;;;;;16.45;84.94;100792.16;146608;612;46021;-68
2023/10/20 02:13:57;;;;;;;;;8.33;6.33;;;;;16.46;84.90;100788.69;146601;600;47038;-69
2023/10/20 02:16:52;;;;;;;;;6.67;5.33;;;;;16.47;84.72;100798.31;146608;590;47020;-68
2023/10/20 02:19:46;;;;;;;;;8.67;6.67;;;;;16.49;85.04;100804.47;146606;597;46016;-67
2023/10/20 02:22:42;;;;;;;;;8.67;6.67;;;;;16.54;85.10;100810.75;146610;589;46010;-68
2023/10/20 02:26:00;;;;;;;;;9.00;9.00;;;;;16.57;85.13;100802.97;146607;570;46016;-67
2023/10/20 02:29:09;;;;;;;;;7.00;7.00;;;;;16.54;83.41;100801.97;146607;595;46021;-66
2023/10/20 02:32:14;;;;;;;;;8.00;6.33;;;;;16.46;85.09;100811.38;146605;578;46016;-67
2023/10/20 02:35:20;;;;;;;;;6.00;6.00;;;;;15.05;84.26;100582.31;146609;633;46010;-68
2023/10/20 02:38:39;;;;;;;;;5.67;5.67;;;;;16.26;84.89;100801.22;146608;610;46912;-68
2023/10/20 02:41:34;;;;;;;;;5.00;5.00;;;;;16.20;84.31;100802.72;146611;665;45021;-70
2023/10/20 02:44:41;;;;;;;;;9.00;6.50;;;;;16.19;84.91;100793.13;146604;604;46913;-68
2023/10/20 02:47:36;;;;;;;;;5.33;5.33;;;;;16.20;84.72;100781.81;146609;576;47010;-69
2023/10/20 02:50:38;;;;;;;;;7.00;5.00;;;;;16.20;85.04;100773.97;146606;571;47012;-69
2023/10/20 02:53:42;;;;;;;;;5.67;4.33;;;;;16.22;84.75;100787.97;146610;625;47027;-68
2023/10/20 02:56:34;;;;;;;;;7.33;5.33;;;;;16.23;86.04;100788.03;146605;577;46017;-70
2023/10/20 02:59:37;;;;;;;;;7.67;7.00;;;;;16.25;84.58;100782.84;146610;613;47010;-68
2023/10/20 03:02:33;;;;;;;;;10.33;8.00;;;;;16.27;85.32;100791.62;146607;602;46016;-68
2023/10/20 03:05:27;;;;;;;;;7.00;7.00;;;;;16.26;84.89;100790.75;146607;621;46010;-67
2023/10/20 03:08:24;;;;;;;;;7.00;6.00;;;;;16.21;84.49;100786.22;146606;566;46016;-69
2023/10/20 03:11:21;;;;;;;;;6.67;6.67;;;;;16.16;85.48;100797.41;146609;574;46020;-67
2023/10/20 03:14:19;;;;;;;;;7.67;6.67;;;;;16.12;84.82;100785.09;146608;654;46028;-67
2023/10/20 03:17:26;;;;;;;;;8.75;7.50;;;;;14.91;84.15;100585.38;146607;645;46010;-67
2023/10/20 03:20:32;;;;;;;;;6.33;5.67;;;;;16.08;84.93;100785.84;146608;596;46012;-68
2023/10/20 03:23:43;;;;;;;;;;;;;;;;;;;;;
2023/10/20 03:26:44;;;;;;;;;12.00;8.00;;;;;16.01;84.48;100776.06;146603;570;48010;-67
2023/10/20 03:29:39;;;;;;;;;1.25;1.00;;;;;16.00;84.93;100781.22;146606;563;47020;-68
2023/10/20 03:32:37;;;;;;;;;9.67;8.00;;;;;16.00;84.82;100776.88;146608;610;46013;-71
2023/10/20 03:35:48;;;;;;;;;5.33;5.33;;;;;16.03;85.05;100789.16;146610;632;47010;-69
2023/10/20 03:38:42;;;;;;;;;8.67;7.33;;;;;16.01;85.12;100783.00;146608;612;46012;-71
2023/10/20 03:41:37;;;;;;;;;8.33;6.00;;;;;15.92;84.93;100778.41;146609;608;46040;-71
2023/10/20 03:44:39;;;;;;;;;7.00;6.33;;;;;15.88;84.75;100785.22;146603;625;46027;-70
2023/10/20 03:47:37;;;;;;;;;8.33;8.00;;;;;15.83;85.47;100783.34;146609;603;45021;-69
2023/10/20 03:50:33;;;;;;;;;9.00;7.00;;;;;15.79;85.80;100784.94;146608;668;46014;-70
2023/10/20 03:53:33;;;;;;;;;6.00;6.00;;;;;15.73;86.09;100781.25;146608;603;46010;-69
2023/10/20 03:56:39;;;;;;;;;8.33;7.33;;;;;15.68;86.89;100786.37;146606;679;46013;-69
2023/10/20 03:59:31;;;;;;;;;7.50;6.75;;;;;15.66;86.42;100790.59;146607;608;46020;-70
2023/10/20 04:02:36;;;;;;;;;8.00;7.67;;;;;15.64;86.57;100789.69;146607;571;46016;-68
2023/10/20 04:05:32;;;;;;;;;8.67;7.00;;;;;15.02;86.95;100683.22;146608;593;46020;-69
2023/10/20 04:08:27;;;;;;;;;9.00;8.00;;;;;15.64;87.11;100784.47;146607;569;46014;-69
2023/10/20 04:11:19;;;;;;;;;10.67;7.67;;;;;15.63;87.08;100786.16;146605;609;47021;-69
2023/10/20 04:14:23;;;;;;;;;9.00;8.00;;;;;15.63;87.36;100791.41;146604;577;47016;-68
2023/10/20 04:17:22;;;;;;;;;9.33;8.00;;;;;15.63;87.38;100786.16;146608;645;46020;-67
2023/10/20 04:20:18;;;;;;;;;6.50;5.75;;;;;15.60;86.69;100775.63;146606;570;46016;-68
2023/10/20 04:23:13;;;;;;;;;10.00;8.00;;;;;15.56;87.01;100778.09;146607;626;46020;-69
2023/10/20 04:26:16;;;;;;;;;8.00;7.25;;;;;15.54;87.01;100779.75;146606;597;46017;-69
2023/10/20 04:29:33;;;;;;;;;8.25;7.25;;;;;15.50;87.04;100778.78;146605;563;47020;-69
2023/10/20 04:49:27;;;;;;;;;9.00;7.25;;;;;15.55;87.02;100784.19;146607;602;46010;-70
2023/10/20 04:59:22;;;;;;;;;13.25;8.75;;;;;15.78;86.90;100775.34;146604;612;46016;-69
2023/10/20 05:02:38;;;;;;;;;9.75;9.00;;;;;15.79;86.56;100768.38;146607;582;46011;-68
2023/10/20 05:12:03;;;;;;;;;9.25;8.75;;;;;15.93;87.17;100781.03;146605;715;46016;-66
2023/10/20 05:15:10;;;;;;;;;10.00;8.33;;;;;16.02;86.04;100784.78;146606;606;46020;-67
2023/10/20 05:18:27;;;;;;;;;11.00;10.75;;;;;16.15;87.41;100776.47;146604;622;46016;-67
2023/10/20 05:21:22;;;;;;;;;10.25;10.25;;;;;16.53;89.21;100782.78;146607;571;46020;-67
2023/10/20 05:24:20;;;;;;;;;14.00;11.00;;;;;17.13;90.91;100779.16;146606;587;46016;-67
2023/10/20 05:27:33;;;;;;;;;12.50;11.00;;;;;17.79;87.00;100783.44;146607;636;46026;-69
2023/10/20 05:30:35;;;;;;;;;26.75;22.75;;;;;18.33;83.49;100785.47;146603;630;46016;-68
2023/10/20 05:33:37;;;;;;;;;15.75;12.75;;;;;18.97;79.71;100791.12;146606;625;46047;-67
2023/10/20 05:36:45;;;;;;;;;13.33;11.33;;;;;19.51;78.50;100789.41;146605;569;46016;-67
2023/10/20 05:39:41;;;;;;;;;12.00;10.75;;;;;19.97;75.51;100798.91;146607;613;46021;-68
2023/10/20 05:42:36;;;;;;;;;13.33;11.67;;;;;20.43;72.68;100798.59;146606;656;46012;-67
2023/10/20 05:45:51;;;;;;;;;14.00;11.00;;;;;19.77;70.65;100598.62;146604;581;46020;-68
2023/10/20 05:49:02;;;;;;;;;16.67;14.00;;;;;21.20;70.45;100803.84;146605;579;46016;-69
2023/10/20 05:51:56;;;;;;;;;13.00;12.33;;;;;21.59;67.58;100802.47;146606;590;46020;-67
2023/10/20 05:55:03;;;;;;;;;12.50;12.00;;;;;21.89;67.41;100812.31;146607;657;46012;-68
2023/10/20 05:58:04;;;;;;;;;17.00;13.33;;;;;22.12;68.21;100814.25;146606;623;47020;-69
2023/10/20 06:01:09;;;;;;;;;11.50;11.50;;;;;21.24;66.44;100614.88;146606;573;46015;-70
2023/10/20 06:04:03;;;;;;;;;14.67;12.00;;;;;22.58;65.16;100804.75;146607;574;46010;-68
2023/10/20 06:07:04;;;;;;;;;11.00;11.00;;;;;22.68;65.47;100820.66;146602;571;47016;-68
2023/10/20 06:10:22;;;;;;;;;;;;;;;;;;;;;
2023/10/20 06:13:21;;;;;;;;;15.25;13.00;;;;;22.74;64.95;100820.66;146606;564;46016;-69
2023/10/20 06:16:21;;;;;;;;;14.67;11.67;;;;;22.79;64.54;100817.16;146608;569;47011;-70
2023/10/20 06:19:14;;;;;;;;;11.33;10.00;;;;;22.78;63.73;100827.75;146604;579;46915;-68
2023/10/20 06:22:13;;;;;;;;;10.00;10.00;;;;;22.73;63.50;100827.72;146604;577;47010;-69
2023/10/20 06:25:17;;;;;;;;;15.00;11.67;;;;;22.64;64.16;100832.97;146607;617;46022;-71
2023/10/20 06:28:33;;;;;;;;;10.67;9.33;;;;;21.38;65.22;100623.81;146607;578;47023;-71
2023/10/20 06:31:53;;;;;;;;;;;;;;;;;;;;;
2023/10/20 06:35:04;;;;;;;;;18.00;13.67;;;;;22.28;65.74;100833.72;146606;591;46010;-70
2023/10/20 06:38:10;;;;;;;;;11.33;11.00;;;;;22.24;66.20;100834.56;146606;578;46016;-70
2023/10/20 06:41:13;;;;;;;;;14.67;12.33;;;;;22.20;67.82;100841.59;146609;603;46020;-71
2023/10/20 06:44:09;;;;;;;;;12.00;11.00;;;;;22.22;68.28;100837.22;146605;569;46035;-72
2023/10/20 06:47:08;;;;;;;;;14.33;12.67;;;;;22.31;68.06;100849.59;146609;616;46014;-71
2023/10/20 06:50:10;;;;;;;;;12.33;11.67;;;;;22.40;67.39;100848.72;146604;571;47017;-72
2023/10/20 06:53:05;;;;;;;;;15.00;12.67;;;;;22.44;67.50;100853.19;146607;730;46021;-73
2023/10/20 06:56:01;;;;;;;;;14.00;12.00;;;;;22.45;67.13;100855.81;146601;638;48012;-72
2023/10/20 06:59:09;;;;;;;;;14.33;13.33;;;;;21.31;67.53;100651.00;146609;611;46020;-70
2023/10/20 07:02:03;;;;;;;;;12.00;12.00;;;;;22.49;66.43;100860.25;146606;618;45017;-71
2023/10/20 07:04:56;;;;;;;;;14.67;13.00;;;;;22.50;67.08;100858.50;146609;695;46020;-71
2023/10/20 07:08:00;;;;;;;;;18.75;13.75;;;;;22.55;67.46;100857.63;146602;623;46013;-71
2023/10/20 07:10:54;;;;;;;;;16.75;15.75;;;;;22.55;65.73;100862.00;146604;572;47010;-71
2023/10/20 07:13:50;;;;;;;;;20.75;16.00;;;;;22.50;67.26;100863.78;146605;677;46014;-70
2023/10/20 07:16:52;;;;;;;;;;;;;;;;;;;;;
2023/10/20 07:19:57;;;;;;;;;17.50;15.25;;;;;22.52;68.95;100862.91;146625;563;45016;-71
2023/10/20 07:22:51;;;;;;;;;25.50;22.25;;;;;22.55;68.22;100869.94;146625;584;45021;-71
2023/10/20 07:25:47;;;;;;;;;26.00;22.50;;;;;22.55;67.80;100857.63;146623;586;46012;-71
2023/10/20 07:28:42;;;;;;;;;26.25;20.50;;;;;22.59;68.90;100855.88;146627;661;46030;-68
2023/10/20 07:31:44;;;;;;;;;24.00;21.75;;;;;22.67;69.41;100861.19;146626;575;45012;-71
2023/10/20 07:34:47;;;;;;;;;22.75;19.00;;;;;22.76;69.25;100866.50;146625;705;45030;-72
2023/10/20 07:37:43;;;;;;;;;26.25;22.00;;;;;22.90;68.78;100856.88;146623;663;46013;-71
2023/10/20 07:40:38;;;;;;;;;25.00;21.50;;;;;23.03;69.29;100860.47;146627;650;45915;-72
2023/10/20 07:43:52;;;;;;;;;27.75;20.50;;;;;22.01;69.03;100665.44;146624;569;45016;-72
2023/10/20 07:46:57;;;;;;;;;22.50;18.25;;;;;23.24;69.00;100863.16;146623;678;46020;-71
2023/10/20 07:49:52;;;;;;;;;22.75;20.50;;;;;23.35;68.97;100868.44;146625;634;45016;-71
2023/10/20 07:52:47;;;;;;;;;25.50;23.25;;;;;23.46;68.10;100857.87;146627;570;45011;-71
2023/10/20 07:55:51;;;;;;;;;23.50;20.50;;;;;23.57;68.43;100858.75;146623;579;46012;-71
2023/10/20 07:58:52;;;;;;;;;28.25;23.00;;;;;23.70;68.06;100859.66;146624;568;46019;-71
2023/10/20 08:01:46;;;;;;;;;23.75;22.50;;;;;23.82;67.05;100853.47;146625;601;46014;-72
2023/10/20 08:04:41;;;;;;;;;24.25;19.25;;;;;23.93;66.46;100868.47;146624;645;46010;-71
2023/10/20 08:07:58;;;;;;;;;22.50;20.00;;;;;24.05;66.37;100864.03;146624;582;46013;-72
2023/10/20 08:10:57;;;;;;;;;19.50;17.50;;;;;24.15;66.26;100855.19;146625;625;46020;-71
2023/10/20 08:13:56;;;;;;;;;21.75;16.50;;;;;24.31;66.10;100861.34;146617;633;47016;-70
2023/10/20 08:17:03;;;;;;;;;21.00;17.25;;;;;24.50;66.14;100859.53;146624;575;46010;-71
2023/10/20 08:19:59;;;;;;;;;21.00;17.75;;;;;24.72;64.86;100860.31;146620;690;47012;-71
2023/10/20 08:22:56;;;;;;;;;15.00;14.00;;;;;24.83;64.22;100867.34;146627;596;44917;-71
2023/10/20 08:25:54;;;;;;;;;25.25;20.50;;;;;24.83;64.19;100866.47;146624;680;46010;-71
2023/10/20 08:28:53;;;;;;;;;18.33;16.00;;;;;24.78;63.83;100852.34;146626;586;45021;-71
2023/10/20 08:31:48;;;;;;;;;19.67;16.00;;;;;24.70;63.46;100855.00;146620;627;47012;-71
2023/10/20 08:34:41;;;;;;;;;16.67;15.33;;;;;24.65;64.28;100862.12;146627;650;46010;-71
2023/10/20 08:37:51;;;;;;;;;18.00;14.67;;;;;24.62;64.72;100864.78;146625;631;46014;-71
2023/10/20 08:40:46;;;;;;;;;20.67;15.67;;;;;24.63;63.82;100858.59;146629;563;45915;-71
2023/10/20 08:43:48;;;;;;;;;19.33;17.33;;;;;24.74;65.13;100856.78;146621;593;46015;-71
2023/10/20 08:46:58;;;;;;;;;;;;;;;;;;;;;
2023/10/20 08:49:58;;;;;;;;;16.67;15.33;;;;;24.80;62.42;100853.22;146625;588;46012;-71
2023/10/20 08:52:58;;;;;;;;;24.00;19.75;;;;;24.78;64.46;100861.19;146625;572;46021;-71
2023/10/20 08:55:51;;;;;;;;;20.00;15.00;;;;;24.80;64.92;100862.06;146625;579;45016;-72
2023/10/20 08:58:48;;;;;;;;;20.75;18.25;;;;;24.90;64.72;100865.53;146626;579;46011;-71
2023/10/20 09:01:50;;;;;;;;;24.00;23.50;;;;;25.03;64.62;100861.03;146619;574;46014;-71
2023/10/20 09:04:44;;;;;;;;;18.50;18.00;;;;;25.06;63.54;100855.72;146629;621;45021;-71
2023/10/20 09:08:03;;;;;;;;;;;;;;;;;;;;;
2023/10/20 09:11:00;;;;;;;;;19.67;15.00;;;;;25.24;63.54;100854.75;146627;730;45913;-71
2023/10/20 09:14:00;;;;;;;;;18.67;17.00;;;;;25.33;62.09;100847.59;146625;582;45017;-71
2023/10/20 09:17:04;;;;;;;;;16.33;13.33;;;;;25.43;61.47;100840.44;146625;595;46010;-71
2023/10/20 09:20:17;;;;;;;;;18.00;16.33;;;;;25.52;61.79;100851.00;146628;669;45016;-72
2023/10/20 09:23:15;;;;;;;;;18.00;15.00;;;;;25.67;62.00;100851.75;146626;657;46014;-71
2023/10/20 09:26:16;;;;;;;;;18.67;16.33;;;;;25.73;61.81;100854.34;146629;624;46012;-71
2023/10/20 09:29:21;;;;;;;;;20.75;17.75;;;;;25.79;62.54;100852.53;146628;719;46010;-71
2023/10/20 09:32:30;;;;;;;;;;;;;;;;;;;;;
2023/10/20 09:35:39;;;;;;;;;19.00;18.67;;;;;26.01;62.13;100850.59;146631;610;46010;-72
2023/10/20 09:38:37;;;;;;;;;20.00;18.50;;;;;26.25;61.74;100844.09;146624;606;46016;-72
2023/10/20 09:41:37;;;;;;;;;20.50;18.50;;;;;26.47;59.84;100833.22;146625;624;46010;-71
2023/10/20 09:45:01;;;;;;;;;17.75;17.00;;;;;25.39;61.06;100633.44;146627;675;45017;-71
2023/10/20 09:48:00;;;;;;;;;19.00;18.75;;;;;26.52;60.95;100831.41;146628;621;45010;-72
2023/10/20 09:51:08;;;;;;;;;18.67;16.33;;;;;26.61;59.43;100833.97;146628;614;46012;-72
2023/10/20 09:54:13;;;;;;;;;17.67;17.00;;;;;26.72;60.18;100826.69;146624;578;45020;-71
2023/10/20 09:57:13;;;;;;;;;18.25;16.25;;;;;26.83;60.51;100813.25;146627;675;45029;-71
2023/10/20 10:00:10;;;;;;;;;15.67;13.00;;;;;27.02;59.06;100811.22;146626;636;46010;-71
2023/10/20 10:03:25;;;;;;;;;21.67;16.67;;;;;27.24;58.30;100806.47;146625;558;46012;-71
2023/10/20 10:06:23;;;;;;;;;15.75;14.75;;;;;27.34;57.86;100804.53;146628;572;45918;-71
2023/10/20 10:09:24;;;;;;;;;18.00;17.67;;;;;27.39;57.33;100790.25;146624;613;46016;-71
2023/10/20 10:12:43;;;;;;;;;19.00;14.67;;;;;26.42;59.23;100603.75;146629;584;46918;-71
2023/10/20 10:16:14;;;;;;;;;14.00;11.33;;;;;26.61;59.14;100602.59;146609;633;46012;-72
2023/10/20 10:19:21;;;;;;;;;17.67;17.33;;;;;27.80;58.51;100785.97;146606;675;45020;-71
2023/10/20 10:22:18;;;;;;;;;16.00;13.00;;;;;27.87;56.37;100784.06;146606;622;46017;-72
2023/10/20 10:25:29;;;;;;;;;;;;;;;;;;;;;
2023/10/20 10:28:37;;;;;;;;;14.33;12.33;;;;;27.90;55.19;100778.69;146603;581;47013;-72
2023/10/20 10:31:47;;;;;;;;;13.67;12.67;;;;;28.02;57.66;100773.13;146608;584;47010;-72
2023/10/20 10:34:48;;;;;;;;;13.33;13.00;;;;;28.13;55.67;100772.00;146600;616;47013;-71
2023/10/20 10:37:49;;;;;;;;;14.00;12.33;;;;;28.18;54.81;100775.47;146604;571;46021;-71
2023/10/20 10:40:51;;;;;;;;;12.33;11.67;;;;;28.15;55.46;100768.41;146605;596;47012;-71
2023/10/20 10:43:52;;;;;;;;;8.33;8.33;;;;;28.05;54.63;100766.84;146606;581;46010;-71
2023/10/20 10:46:49;;;;;;;;;11.33;9.00;;;;;27.95;54.99;100759.97;146604;575;47012;-72
2023/10/20 10:49:55;;;;;;;;;8.33;8.33;;;;;27.81;57.53;100766.41;146605;592;46021;-72
2023/10/20 10:52:50;;;;;;;;;11.33;8.00;;;;;27.77;55.69;100764.72;146605;556;46016;-74
2023/10/20 10:55:43;;;;;;;;;10.00;7.00;;;;;27.76;55.02;100759.41;146606;621;46020;-72
2023/10/20 10:58:50;;;;;;;;;7.00;6.00;;;;;26.71;56.06;100574.91;146604;650;46916;-73
2023/10/20 11:01:46;;;;;;;;;10.33;10.00;;;;;27.68;53.10;100750.66;146607;577;46020;-71
2023/10/20 11:04:41;;;;;;;;;10.00;8.00;;;;;27.66;54.80;100748.00;146605;699;46013;-72
2023/10/20 11:07:48;;;;;;;;;;;;;;;;;;;;;
2023/10/20 11:10:54;;;;;;;;;8.33;8.33;;;;;27.81;56.21;100741.56;146607;569;46018;-71
2023/10/20 11:13:54;;;;;;;;;11.67;11.67;;;;;27.88;55.71;100737.84;146605;615;48010;-71
2023/10/20 11:16:47;;;;;;;;;8.00;8.00;;;;;27.96;54.32;100735.94;146625;596;46915;-73
2023/10/20 11:19:50;;;;;;;;;7.67;7.67;;;;;28.04;55.46;100742.00;146623;571;46020;-71
2023/10/20 11:22:48;;;;;;;;;7.00;7.00;;;;;28.08;54.94;100738.34;146628;590;45915;-71
2023/10/20 11:25:52;;;;;;;;;10.00;8.67;;;;;28.09;55.70;100737.41;146629;566;45030;-73
2023/10/20 11:28:47;;;;;;;;;10.33;10.33;;;;;28.13;55.55;100734.69;146624;573;46916;-71
2023/10/20 11:31:42;;;;;;;;;10.33;9.33;;;;;28.16;54.41;100732.84;146627;563;45020;-72
2023/10/20 11:34:50;;;;;;;;;12.33;11.33;;;;;28.16;53.89;100731.97;146626;588;45017;-72
2023/10/20 11:37:46;;;;;;;;;11.00;11.00;;;;;28.15;54.73;100728.41;146625;596;46010;-71
2023/10/20 11:40:42;;;;;;;;;15.00;12.33;;;;;28.14;54.97;100728.47;146627;566;45016;-72
2023/10/20 11:43:37;;;;;;;;;14.00;12.00;;;;;28.16;54.23;100727.50;146625;638;45020;-71
2023/10/20 11:46:29;;;;;;;;;12.67;11.00;;;;;28.20;55.59;100731.00;146626;645;46016;-72
2023/10/20 11:49:25;;;;;;;;;14.00;12.00;;;;;28.27;55.64;100728.16;146627;581;46010;-72
2023/10/20 11:52:27;;;;;;;;;11.33;11.00;;;;;28.34;53.52;100723.56;146625;569;45017;-72
2023/10/20 11:55:32;;;;;;;;;14.67;12.00;;;;;28.41;54.63;100725.25;146629;592;46010;-72
2023/10/20 11:58:37;;;;;;;;;12.67;10.00;;;;;28.51;53.46;100716.09;146626;593;45016;-71
2023/10/20 12:01:44;;;;;;;;;12.33;9.33;;;;;28.52;51.04;100711.66;146629;598;45028;-71
2023/10/20 12:04:38;;;;;;;;;12.00;11.33;;;;;28.41;51.47;100717.25;146625;598;45016;-71
2023/10/20 12:07:44;;;;;;;;;9.33;7.67;;;;;28.25;51.19;100721.09;146622;573;46014;-71
2023/10/20 12:10:40;;;;;;;;;12.00;10.33;;;;;28.14;52.45;100717.81;146624;570;45016;-72
2023/10/20 12:13:46;;;;;;;;;11.00;9.67;;;;;28.02;54.81;100721.59;146627;603;45915;-71
2023/10/20 12:17:07;;;;;;;;;8.33;8.00;;;;;27.93;54.72;100717.34;146627;598;46010;-71
2023/10/20 12:20:00;;;;;;;;;8.67;6.00;;;;;27.93;54.53;100727.12;146627;565;46010;-72
2023/10/20 12:23:01;;;;;;;;;9.00;8.00;;;;;28.03;54.07;100720.69;146626;578;46915;-72
2023/10/20 12:25:55;;;;;;;;;10.00;9.00;;;;;28.00;51.47;100718.94;146629;646;45020;-72
2023/10/20 12:29:01;;;;;;;;;9.33;8.33;;;;;27.79;51.89;100706.97;146626;598;45017;-73
2023/10/20 12:31:58;;;;;;;;;9.33;9.33;;;;;27.62;52.87;100711.69;146625;597;45020;-72
2023/10/20 12:34:54;;;;;;;;;9.67;9.33;;;;;27.50;54.19;100715.47;146623;639;45016;-72
2023/10/20 12:37:48;;;;;;;;;13.67;11.00;;;;;27.43;54.53;100712.97;146627;569;46022;-72
2023/10/20 12:40:51;;;;;;;;;12.67;10.00;;;;;27.43;57.60;100715.63;146622;570;47915;-72
2023/10/20 12:43:48;;;;;;;;;8.67;7.67;;;;;27.53;56.14;100717.19;146626;648;45020;-72
2023/10/20 12:46:50;;;;;;;;;10.33;9.00;;;;;27.65;55.96;100708.97;146627;569;46012;-73
2023/10/20 12:49:47;;;;;;;;;11.00;9.00;;;;;27.75;51.34;100710.53;146630;601;45010;-73
2023/10/20 12:52:40;;;;;;;;;8.33;8.00;;;;;27.80;53.68;100707.84;146622;587;46016;-72
2023/10/20 12:55:37;;;;;;;;;10.33;9.00;;;;;27.80;50.92;100715.84;146627;599;45020;-72
2023/10/20 12:58:50;;;;;;;;;6.33;6.33;;;;;27.64;52.28;100712.56;146623;570;45017;-73
2023/10/20 13:01:42;;;;;;;;;11.67;10.33;;;;;27.53;52.77;100715.41;146625;571;46025;-72
2023/10/20 13:04:43;;;;;;;;;5.33;5.33;;;;;27.58;52.32;100715.34;146617;587;46016;-72
2023/10/20 13:07:44;;;;;;;;;9.33;6.00;;;;;27.59;52.13;100719.75;146625;590;46021;-72
2023/10/20 13:10:47;;;;;;;;;6.67;6.67;;;;;27.60;51.53;100706.41;146623;569;46016;-72
2023/10/20 13:13:58;;;;;;;;;8.00;6.33;;;;;26.57;51.68;100534.38;146628;588;45010;-72
2023/10/20 13:16:54;;;;;;;;;9.33;8.33;;;;;27.50;49.55;100704.81;146627;636;46012;-73
2023/10/20 13:19:46;;;;;;;;;7.67;7.00;;;;;27.40;53.36;100708.56;146629;671;45029;-74
2023/10/20 13:22:53;;;;;;;;;8.00;7.00;;;;;27.29;53.25;100715.84;146624;583;46012;-72
2023/10/20 13:26:04;;;;;;;;;9.00;8.00;;;;;27.21;54.26;100709.81;146626;565;45020;-72
2023/10/20 13:29:03;;;;;;;;;10.00;8.67;;;;;27.18;54.98;100705.41;146627;615;46013;-73
2023/10/20 13:31:55;;;;;;;;;9.00;8.00;;;;;27.19;55.35;100709.81;146627;571;46010;-71
2023/10/20 13:34:53;;;;;;;;;11.33;9.00;;;;;27.24;55.53;100707.09;146627;588;45016;-72
2023/10/20 13:37:46;;;;;;;;;9.67;7.00;;;;;27.27;51.12;100709.69;146626;596;45010;-72
2023/10/20 13:40:39;;;;;;;;;7.33;6.00;;;;;27.27;49.44;100702.59;146627;572;46010;-72
2023/10/20 13:43:45;;;;;;;;;;;;;;;;;;;;;
2023/10/20 13:46:43;;;;;;;;;8.00;7.00;;;;;27.12;53.86;100714.34;146626;629;46012;-73
2023/10/20 13:49:35;;;;;;;;;8.67;8.67;;;;;27.06;55.58;100705.59;146625;599;46020;-72
2023/10/20 13:52:33;;;;;;;;;7.33;7.33;;;;;27.08;55.70;100717.09;146627;605;46014;-72
2023/10/20 13:55:39;;;;;;;;;9.67;6.67;;;;;27.06;57.23;100719.75;146624;671;45020;-72
2023/10/20 13:58:40;;;;;;;;;10.33;7.33;;;;;27.06;56.04;100708.25;146626;678;45914;-72
2023/10/20 14:01:38;;;;;;;;;8.00;7.33;;;;;27.08;55.64;100711.78;146629;624;45010;-72
2023/10/20 14:04:33;;;;;;;;;8.00;8.00;;;;;27.09;56.73;100711.72;146627;584;45016;-72
2023/10/20 14:07:26;;;;;;;;;8.00;8.00;;;;;27.05;55.61;100709.16;146624;656;47010;-72
2023/10/20 14:10:25;;;;;;;;;9.33;9.33;;;;;26.95;57.36;100705.78;146626;598;46010;-72
2023/10/20 14:13:18;;;;;;;;;10.33;9.33;;;;;26.83;57.35;100703.31;146627;627;45028;-72
2023/10/20 14:16:16;;;;;;;;;9.33;8.67;;;;;26.71;58.09;100707.91;146609;563;46012;-72
2023/10/20 14:19:17;;;;;;;;;11.00;9.67;;;;;26.61;58.34;100708.97;146607;584;46030;-72
2023/10/20 14:22:16;;;;;;;;;10.00;9.00;;;;;26.56;59.30;100712.59;146606;589;46016;-72
2023/10/20 14:25:18;;;;;;;;;16.67;14.33;;;;;26.48;59.06;100718.00;146607;627;47010;-72
2023/10/20 14:28:13;;;;;;;;;13.00;11.33;;;;;26.40;60.15;100718.09;146605;660;46017;-70
2023/10/20 14:31:17;;;;;;;;;13.67;11.00;;;;;26.33;60.22;100723.53;146605;626;46020;-70
2023/10/20 14:34:13;;;;;;;;;11.00;10.33;;;;;26.27;59.47;100716.50;146606;585;46016;-70
2023/10/20 14:37:10;;;;;;;;;9.33;9.00;;;;;26.19;59.90;100723.69;146607;600;46020;-72